Aeroporto :
LOGIN :

Iscrizione | Disclaimer

   EN    FR    IT 

 










Sommario :    VFR   VFR Marginale   IFR   IFR Intensivo   IFR Molto Intensivo
Visibilità : 
Base nubi : 
>= 8 km
>= 3000ft
5 / 8 km
1000 / 3000 ft
1500m / 5 km
500 / 1000 ft
800 / 1500m
200 / 500 ft
< 800m
< 200 ft
Simboli :   Temporali  Nebbia  Neve Forte  Precipitazioni Forti  Vento > 20 kt
SIGMETs :   Varie  Temporali  Ghiacco  Turbolenza  Onda orograficha  Ceneri Vulcaniche






- Altitudine del aeroporto : 163 ft
- Codice IATA : IST


LTBA - Ataturk

ULTIMO METAR :
  • 020650Z 04014KT 9999 BKN012 BKN030 08/05 Q1011 NOSIG RMK RWY17L 04019G30KT 010V070 RWY05 06018KT RWY23 06020KT

METARs OBSOLETI :
  • 020620Z 04018KT 010V070 9999 BKN012 BKN030 08/05 Q1012 NOSIG RMK RWY17L 04018G28KT RWY05 06019KT RWY23 06016KT
  • 020550Z 05015KT 9999 SCT012 BKN025 08/05 Q1011 NOSIG RMK RWY17L 04016G28KT RWY05 06019KT RWY23 05019KT
  • 020520Z 04016KT 9999 SCT015 BKN025 08/05 Q1011 NOSIG RMK RWY17L 05018KT RWY05 06022KT RWY23 06022KT
  • 020450Z 05016KT 020V080 9999 SCT015 BKN025 08/05 Q1012 NOSIG RMK RWY17L 04018KT RWY05 06020KT RWY23 06018G28KT
  • 020420Z 05015KT 9999 SCT015 BKN025 08/05 Q1012 NOSIG RMK RWY17L 05015KT RWY05 07016KT RWY23 07017KT

TAF TAF LTBA
Valido dal 02 a 06 ore il 03 a 12 ore UTC


020440Z 0206/0312 05015KT 9999 SCT012 BKN025
BECMG 0206/0209 03017G32KT
BECMG 0209/0212-SHRA
PROB40
TEMPO 0215/0218 4000 SHRA FEW015CB BKN020
BECMG 0221/0224 36012KT
BECMG 0300/0303 VRB02KT
BECMG 0309/0312 SCT027



MetMap, La meteo Aeronautica in un colpo d'occhio ! - Copyright ORBIFLY Dicembre 2007 - Disclaimer

ORBIFLY MET'MAP TEAM :

Programmazione e sviluppo : Alexandra Zaïnal
Concezione : Baudouin d'Aumeries
Aiuto per la programmazione : Marc-Olivier Méhu
Supporto tecnico e logistico : Manuel Goepfert
Aiuto per la traduzione : Arnaldo La Scala

Contatto : metmap@orbifly.com




FONTI E CREDITI :

   NOAA